CheckWX is a tool to help pilots better visualize weather data.  It is not intended as a substitute for an official pre-flight weather briefing.

06:49:38 UTC

EPWR METAR
Copernicus Wrocław Airport
Wrocław, Poland
Current

50 mins ago

EPWR 220600Z 20008KT 170V230 CAVOK 03/M01 Q1023
Observed
Feb-22 @ 06:00 UTC
Wind
  • 200° at 8 KTS
Visibility
10,000+ meters
Flight Rules
VFR
Cloud Levels
  • Clear skies
Temperature
C / 37°F
Dewpoint
-1°C / 30°F
Humidity
75%
Altimeter
30.21" Hg
Pressure
1022.92 hPa
Previous

1 hour ago

EPWR 220530Z 19006KT CAVOK 03/M01 Q1023
Observed
Feb-22 @ 05:30 UTC
Wind
  • 190° at 6 KTS
Visibility
10,000+ meters
Flight Rules
VFR
Cloud Levels
  • Clear skies
Temperature
C / 37°F
Dewpoint
-1°C / 30°F
Humidity
75%
Altimeter
30.21" Hg
Pressure
1022.92 hPa
Previous

2 hours ago

EPWR 220500Z 21007KT CAVOK 04/M01 Q1024
Observed
Feb-22 @ 05:00 UTC
Wind
  • 210° at 7 KTS
Visibility
10,000+ meters
Flight Rules
VFR
Cloud Levels
  • Clear skies
Temperature
C / 39°F
Dewpoint
-1°C / 30°F
Humidity
70%
Altimeter
30.24" Hg
Pressure
1023.92 hPa